sensor_id;sensor_type;location;lat;lon;timestamp;pressure;altitude;pressure_sealevel;temperature;humidity
36354;BME280;22383;51.114;13.666;2023-03-23T00:00:02;68447.63;;;11.36;100.00
36354;BME280;22383;51.114;13.666;2023-03-23T00:02:36;68455.75;;;11.46;100.00
36354;BME280;22383;51.114;13.666;2023-03-23T00:05:05;68461.25;;;11.48;100.00
36354;BME280;22383;51.114;13.666;2023-03-23T00:07:34;68492.63;;;11.79;100.00
36354;BME280;22383;51.114;13.666;2023-03-23T00:10:01;68472.78;;;11.61;100.00
36354;BME280;22383;51.114;13.666;2023-03-23T00:12:31;68475.78;;;11.66;100.00
36354;BME280;22383;51.114;13.666;2023-03-23T00:15:04;68468.41;;;11.60;100.00
36354;BME280;22383;51.114;13.666;2023-03-23T00:17:32;68465.38;;;11.54;100.00
36354;BME280;22383;51.114;13.666;2023-03-23T00:20:02;68457.44;;;11.47;100.00
36354;BME280;22383;51.114;13.666;2023-03-23T00:22:34;68460.66;;;11.48;100.00
36354;BME280;22383;51.114;13.666;2023-03-23T00:25:05;68455.75;;;11.46;100.00
36354;BME280;22383;51.114;13.666;2023-03-23T00:27:31;68458.94;;;11.46;100.00
36354;BME280;22383;51.114;13.666;2023-03-23T00:29:57;68465.38;;;11.54;100.00
36354;BME280;22383;51.114;13.666;2023-03-23T00:32:24;68461.97;;;11.51;100.00
36354;BME280;22383;51.114;13.666;2023-03-23T00:34:56;68479.94;;;11.65;100.00
36354;BME280;22383;51.114;13.666;2023-03-23T00:37:26;68475.97;;;11.62;100.00
36354;BME280;22383;51.114;13.666;2023-03-23T00:39:52;68491.13;;;11.80;100.00
36354;BME280;22383;51.114;13.666;2023-03-23T00:42:24;68502.47;;;11.83;100.00
36354;BME280;22383;51.114;13.666;2023-03-23T00:44:51;68488.66;;;11.76;100.00
36354;BME280;22383;51.114;13.666;2023-03-23T00:47:19;68504.75;;;11.85;100.00
36354;BME280;22383;51.114;13.666;2023-03-23T00:49:46;68508.53;;;11.94;100.00
36354;BME280;22383;51.114;13.666;2023-03-23T00:52:13;68500.00;;;11.86;100.00
36354;BME280;22383;51.114;13.666;2023-03-23T00:54:40;68512.31;;;11.95;100.00
36354;BME280;22383;51.114;13.666;2023-03-23T00:57:08;68498.31;;;11.84;100.00
36354;BME280;22383;51.114;13.666;2023-03-23T00:59:36;68488.47;;;11.73;100.00
36354;BME280;22383;51.114;13.666;2023-03-23T01:02:02;68497.91;;;11.86;100.00
36354;BME280;22383;51.114;13.666;2023-03-23T01:04:28;68505.50;;;11.96;100.00
36354;BME280;22383;51.114;13.666;2023-03-23T01:06:57;68492.44;;;11.84;100.00
36354;BME280;22383;51.114;13.666;2023-03-23T01:09:26;68497.91;;;11.86;100.00
36354;BME280;22383;51.114;13.666;2023-03-23T01:11:54;68507.78;;;11.90;100.00
36354;BME280;22383;51.114;13.666;2023-03-23T01:14:21;68504.19;;;11.92;100.00
36354;BME280;22383;51.114;13.666;2023-03-23T01:16:49;68514.22;;;11.99;100.00
36354;BME280;22383;51.114;13.666;2023-03-23T01:19:16;68508.34;;;11.91;100.00
36354;BME280;22383;51.114;13.666;2023-03-23T01:21:42;68500.56;;;11.86;100.00
36354;BME280;22383;51.114;13.666;2023-03-23T01:24:09;68506.47;;;11.94;100.00
36354;BME280;22383;51.114;13.666;2023-03-23T01:26:36;68509.13;;;11.94;100.00
36354;BME280;22383;51.114;13.666;2023-03-23T01:29:03;68515.34;;;12.00;100.00
36354;BME280;22383;51.114;13.666;2023-03-23T01:31:29;68500.56;;;11.86;100.00
36354;BME280;22383;51.114;13.666;2023-03-23T01:33:56;68500.56;;;11.86;100.00
36354;BME280;22383;51.114;13.666;2023-03-23T01:36:26;68501.72;;;11.87;100.00
36354;BME280;22383;51.114;13.666;2023-03-23T01:39:04;68501.34;;;11.82;100.00
36354;BME280;22383;51.114;13.666;2023-03-23T01:41:34;68508.34;;;11.91;100.00
36354;BME280;22383;51.114;13.666;2023-03-23T01:46:53;68501.88;;;11.90;100.00
36354;BME280;22383;51.114;13.666;2023-03-23T01:49:31;68500.19;;;11.88;100.00
36354;BME280;22383;51.114;13.666;2023-03-23T01:52:02;68503.63;;;11.91;100.00
36354;BME280;22383;51.114;13.666;2023-03-23T01:54:31;68499.06;;;11.87;100.00
36354;BME280;22383;51.114;13.666;2023-03-23T01:57:02;68507.03;;;11.95;100.00
36354;BME280;22383;51.114;13.666;2023-03-23T01:59:31;68506.47;;;11.94;100.00
36354;BME280;22383;51.114;13.666;2023-03-23T02:02:20;68523.84;;;12.07;100.00
36354;BME280;22383;51.114;13.666;2023-03-23T02:04:48;68524.25;;;12.05;100.00
36354;BME280;22383;51.114;13.666;2023-03-23T02:07:19;68526.72;;;12.10;100.00
36354;BME280;22383;51.114;13.666;2023-03-23T02:09:50;68528.78;;;12.09;100.00
36354;BME280;22383;51.114;13.666;2023-03-23T02:12:17;68521.59;;;12.05;100.00
36354;BME280;22383;51.114;13.666;2023-03-23T02:14:43;68510.81;;;11.96;100.00
36354;BME280;22383;51.114;13.666;2023-03-23T02:17:23;68517.63;;;12.02;100.00
36354;BME280;22383;51.114;13.666;2023-03-23T02:25:44;68508.53;;;11.94;100.00
36354;BME280;22383;51.114;13.666;2023-03-23T02:34:27;68507.03;;;11.95;100.00
36354;BME280;22383;51.114;13.666;2023-03-23T02:37:06;68511.94;;;11.97;100.00
36354;BME280;22383;51.114;13.666;2023-03-23T02:39:48;68508.16;;;11.96;100.00
36354;BME280;22383;51.114;13.666;2023-03-23T02:42:21;68505.88;;;11.94;100.00
36354;BME280;22383;51.114;13.666;2023-03-23T02:44:50;68506.47;;;11.94;100.00
36354;BME280;22383;51.114;13.666;2023-03-23T02:47:22;68502.09;;;11.85;100.00
36354;BME280;22383;51.114;13.666;2023-03-23T02:49:52;68506.06;;;11.89;100.00
36354;BME280;22383;51.114;13.666;2023-03-23T02:52:22;68507.19;;;11.90;100.00
36354;BME280;22383;51.114;13.666;2023-03-23T02:54:53;68492.63;;;11.79;100.00
36354;BME280;22383;51.114;13.666;2023-03-23T02:57:22;68471.25;;;11.62;100.00
36354;BME280;22383;51.114;13.666;2023-03-23T02:59:53;68471.81;;;11.63;100.00
36354;BME280;22383;51.114;13.666;2023-03-23T03:02:32;68463.13;;;11.52;100.00
36354;BME280;22383;51.114;13.666;2023-03-23T03:05:17;68453.28;;;11.41;100.00
36354;BME280;22383;51.114;13.666;2023-03-23T03:07:58;68468.03;;;11.54;100.00
36354;BME280;22383;51.114;13.666;2023-03-23T03:10:40;68479.38;;;11.65;100.00
36354;BME280;22383;51.114;13.666;2023-03-23T03:13:21;68485.06;;;11.70;100.00
36354;BME280;22383;51.114;13.666;2023-03-23T03:15:56;68484.69;;;11.72;100.00
36354;BME280;22383;51.114;13.666;2023-03-23T03:18:28;68479.19;;;11.69;100.00
36354;BME280;22383;51.114;13.666;2023-03-23T03:21:02;68481.47;;;11.71;100.00
36354;BME280;22383;51.114;13.666;2023-03-23T03:23:33;68501.88;;;11.90;100.00
36354;BME280;22383;51.114;13.666;2023-03-23T03:26:03;68510.25;;;11.95;100.00
36354;BME280;22383;51.114;13.666;2023-03-23T03:28:41;68516.13;;;12.03;100.00
36354;BME280;22383;51.114;13.666;2023-03-23T03:31:08;68515.53;;;12.02;100.00
36354;BME280;22383;51.114;13.666;2023-03-23T03:33:35;68520.09;;;12.06;100.00
36354;BME280;22383;51.114;13.666;2023-03-23T03:36:03;68518.19;;;12.02;100.00
36354;BME280;22383;51.114;13.666;2023-03-23T03:38:43;68533.88;;;12.14;100.00
36354;BME280;22383;51.114;13.666;2023-03-23T03:41:10;68536.91;;;12.19;100.00
36354;BME280;22383;51.114;13.666;2023-03-23T03:43:36;68548.28;;;12.29;100.00
36354;BME280;22383;51.114;13.666;2023-03-23T03:46:04;68551.31;;;12.35;100.00
36354;BME280;22383;51.114;13.666;2023-03-23T03:48:32;68558.50;;;12.39;100.00
36354;BME280;22383;51.114;13.666;2023-03-23T03:50:59;68555.66;;;12.36;100.00
36354;BME280;22383;51.114;13.666;2023-03-23T03:53:30;68546.00;;;12.27;100.00
36354;BME280;22383;51.114;13.666;2023-03-23T03:55:57;68531.06;;;12.12;100.00
36354;BME280;22383;51.114;13.666;2023-03-23T03:58:31;68543.34;;;12.27;100.00
36354;BME280;22383;51.114;13.666;2023-03-23T04:01:01;68544.09;;;12.30;100.00
36354;BME280;22383;51.114;13.666;2023-03-23T04:03:32;68550.38;;;12.29;100.00
36354;BME280;22383;51.114;13.666;2023-03-23T04:06:20;68536.91;;;12.19;100.00
36354;BME280;22383;51.114;13.666;2023-03-23T04:08:47;68530.69;;;12.14;100.00
36354;BME280;22383;51.114;13.666;2023-03-23T04:11:14;68536.16;;;12.16;100.00
36354;BME280;22383;51.114;13.666;2023-03-23T04:13:42;68521.78;;;12.08;100.00
36354;BME280;22383;51.114;13.666;2023-03-23T04:16:23;68525.38;;;12.06;100.00
36354;BME280;22383;51.114;13.666;2023-03-23T04:18:49;68513.09;;;11.98;100.00
36354;BME280;22383;51.114;13.666;2023-03-23T04:21:17;68504.53;;;11.90;100.00
36354;BME280;22383;51.114;13.666;2023-03-23T04:23:47;68514.97;;;12.02;100.00
36354;BME280;22383;51.114;13.666;2023-03-23T04:26:15;68509.69;;;11.95;100.00
36354;BME280;22383;51.114;13.666;2023-03-23T04:28:46;68516.28;;;11.98;100.00
36354;BME280;22383;51.114;13.666;2023-03-23T04:31:31;68519.69;;;12.08;100.00
36354;BME280;22383;51.114;13.666;2023-03-23T04:34:11;68535.03;;;12.15;100.00
36354;BME280;22383;51.114;13.666;2023-03-23T04:36:45;68517.63;;;12.02;100.00
36354;BME280;22383;51.114;13.666;2023-03-23T04:39:17;68539.19;;;12.21;100.00
36354;BME280;22383;51.114;13.666;2023-03-23T04:41:44;68520.28;;;12.02;100.00
36354;BME280;22383;51.114;13.666;2023-03-23T04:44:33;68517.63;;;12.02;100.00
36354;BME280;22383;51.114;13.666;2023-03-23T04:47:15;68513.66;;;11.98;100.00
36354;BME280;22383;51.114;13.666;2023-03-23T04:49:51;68508.34;;;11.91;100.00
36354;BME280;22383;51.114;13.666;2023-03-23T04:52:26;68505.31;;;11.93;100.00
36354;BME280;22383;51.114;13.666;2023-03-23T04:55:00;68512.72;;;11.93;100.00
36354;BME280;22383;51.114;13.666;2023-03-23T04:57:28;68497.19;;;11.83;100.00
36354;BME280;22383;51.114;13.666;2023-03-23T05:00:13;68497.19;;;11.83;100.00
36354;BME280;22383;51.114;13.666;2023-03-23T05:02:48;68505.88;;;11.94;100.00
36354;BME280;22383;51.114;13.666;2023-03-23T05:05:20;68504.75;;;11.85;100.00
36354;BME280;22383;51.114;13.666;2023-03-23T05:07:48;68493.56;;;11.85;100.00
36354;BME280;22383;51.114;13.666;2023-03-23T05:10:17;68498.50;;;11.87;100.00
36354;BME280;22383;51.114;13.666;2023-03-23T05:12:45;68502.84;;;11.88;100.00
36354;BME280;22383;51.114;13.666;2023-03-23T05:15:14;68494.69;;;11.86;100.00
36354;BME280;22383;51.114;13.666;2023-03-23T05:17:43;68505.16;;;11.90;100.00
36354;BME280;22383;51.114;13.666;2023-03-23T05:20:16;68506.06;;;11.89;100.00
36354;BME280;22383;51.114;13.666;2023-03-23T05:23:09;68513.66;;;11.98;100.00
36354;BME280;22383;51.114;13.666;2023-03-23T05:25:36;68521.03;;;12.05;100.00
36354;BME280;22383;51.114;13.666;2023-03-23T05:28:17;68506.81;;;11.92;100.00
36354;BME280;22383;51.114;13.666;2023-03-23T05:31:04;68485.25;;;11.72;100.00
36354;BME280;22383;51.114;13.666;2023-03-23T05:33:32;68484.13;;;11.71;100.00
36354;BME280;22383;51.114;13.666;2023-03-23T05:36:11;68479.94;;;11.72;100.00
36354;BME280;22383;51.114;13.666;2023-03-23T05:38:58;68494.16;;;11.78;100.00
36354;BME280;22383;51.114;13.666;2023-03-23T05:41:39;68494.31;;;11.81;100.00
36354;BME280;22383;51.114;13.666;2023-03-23T05:44:05;68503.63;;;11.91;100.00
36354;BME280;22383;51.114;13.666;2023-03-23T05:46:44;68496.22;;;11.85;100.00
36354;BME280;22383;51.114;13.666;2023-03-23T05:49:11;68486.19;;;11.78;100.00
36354;BME280;22383;51.114;13.666;2023-03-23T05:51:40;68489.41;;;11.79;100.00
36354;BME280;22383;51.114;13.666;2023-03-23T05:54:07;68494.31;;;11.81;100.00
36354;BME280;22383;51.114;13.666;2023-03-23T05:56:34;68493.19;;;11.80;100.00
36354;BME280;22383;51.114;13.666;2023-03-23T05:59:14;68504.53;;;11.90;100.00
36354;BME280;22383;51.114;13.666;2023-03-23T06:01:44;68502.09;;;11.93;100.00
36354;BME280;22383;51.114;13.666;2023-03-23T06:04:11;68518.56;;;12.00;100.00
36354;BME280;22383;51.114;13.666;2023-03-23T06:07:01;68521.03;;;12.05;100.00
36354;BME280;22383;51.114;13.666;2023-03-23T06:09:28;68522.16;;;12.06;100.00
36354;BME280;22383;51.114;13.666;2023-03-23T06:12:04;68541.28;;;12.21;100.00
36354;BME280;22383;51.114;13.666;2023-03-23T06:15:09;68543.16;;;12.25;100.00
36354;BME280;22383;51.114;13.666;2023-03-23T06:17:54;68555.28;;;12.38;100.00
36354;BME280;22383;51.114;13.666;2023-03-23T06:20:28;68536.72;;;12.24;100.00
36354;BME280;22383;51.114;13.666;2023-03-23T06:22:56;68539.94;;;12.24;100.00
36354;BME280;22383;51.114;13.666;2023-03-23T06:25:31;68559.81;;;12.42;100.00
36354;BME280;22383;51.114;13.666;2023-03-23T06:27:58;68558.09;;;12.41;100.00
36354;BME280;22383;51.114;13.666;2023-03-23T06:30:25;68565.69;;;12.43;100.00
36354;BME280;22383;51.114;13.666;2023-03-23T06:32:53;68564.72;;;12.44;100.00
36354;BME280;22383;51.114;13.666;2023-03-23T06:35:36;68579.88;;;12.56;100.00
36354;BME280;22383;51.114;13.666;2023-03-23T06:38:52;68583.66;;;12.64;100.00
36354;BME280;22383;51.114;13.666;2023-03-23T06:41:25;68594.28;;;12.71;100.00
36354;BME280;22383;51.114;13.666;2023-03-23T06:43:52;68584.97;;;12.60;100.00
36354;BME280;22383;51.114;13.666;2023-03-23T06:46:26;68589.72;;;12.67;100.00
36354;BME280;22383;51.114;13.666;2023-03-23T06:48:56;68591.63;;;12.71;100.00
36354;BME280;22383;51.114;13.666;2023-03-23T06:51:34;68592.56;;;12.70;100.00
36354;BME280;22383;51.114;13.666;2023-03-23T06:54:00;68598.97;;;12.78;100.00
36354;BME280;22383;51.114;13.666;2023-03-23T06:56:31;68611.69;;;12.84;100.00
36354;BME280;22383;51.114;13.666;2023-03-23T06:58:57;68622.47;;;12.94;100.00
36354;BME280;22383;51.114;13.666;2023-03-23T07:01:25;68627.78;;;13.01;100.00
36354;BME280;22383;51.114;13.666;2023-03-23T07:03:58;68633.63;;;13.09;100.00
36354;BME280;22383;51.114;13.666;2023-03-23T07:06:36;68650.50;;;13.22;100.00
36354;BME280;22383;51.114;13.666;2023-03-23T07:09:06;68654.66;;;13.28;100.00
36354;BME280;22383;51.114;13.666;2023-03-23T07:11:33;68668.53;;;13.36;100.00
36354;BME280;22383;51.114;13.666;2023-03-23T07:14:05;68676.66;;;13.46;100.00
36354;BME280;22383;51.114;13.666;2023-03-23T07:16:31;68684.03;;;13.52;100.00
36354;BME280;22383;51.114;13.666;2023-03-23T07:18:59;68686.13;;;13.52;100.00
36354;BME280;22383;51.114;13.666;2023-03-23T07:21:26;68676.84;;;13.48;100.00
36354;BME280;22383;51.114;13.666;2023-03-23T07:23:52;68670.41;;;13.40;100.00
36354;BME280;22383;51.114;13.666;2023-03-23T07:26:46;68655.78;;;13.29;100.00
36354;BME280;22383;51.114;13.666;2023-03-23T07:29:13;68663.97;;;13.32;100.00
36354;BME280;22383;51.114;13.666;2023-03-23T07:31:46;68657.31;;;13.28;100.00
36354;BME280;22383;51.114;13.666;2023-03-23T07:34:14;68658.44;;;13.29;100.00
36354;BME280;22383;51.114;13.666;2023-03-23T07:37:01;68664.53;;;13.32;100.00
36354;BME280;22383;51.114;13.666;2023-03-23T07:39:29;68665.88;;;13.36;100.00
36354;BME280;22383;51.114;13.666;2023-03-23T07:41:59;68663.78;;;13.36;100.00
36354;BME280;22383;51.114;13.666;2023-03-23T07:44:41;68632.44;;;13.30;100.00
36354;BME280;22383;51.114;13.666;2023-03-23T07:47:13;68658.44;;;13.29;100.00
36354;BME280;22383;51.114;13.666;2023-03-23T07:49:40;68656.19;;;13.27;100.00
36354;BME280;22383;51.114;13.666;2023-03-23T07:52:16;68656.19;;;13.27;100.00
36354;BME280;22383;51.114;13.666;2023-03-23T07:54:44;68664.16;;;13.34;100.00
36354;BME280;22383;51.114;13.666;2023-03-23T07:57:23;68669.84;;;13.39;100.00
36354;BME280;22383;51.114;13.666;2023-03-23T07:59:52;68676.09;;;13.45;100.00
36354;BME280;22383;51.114;13.666;2023-03-23T08:02:19;68679.50;;;13.48;100.00
36354;BME280;22383;51.114;13.666;2023-03-23T08:05:15;68681.19;;;13.50;100.00
36354;BME280;22383;51.114;13.666;2023-03-23T08:08:05;68670.78;;;13.45;100.00
36354;BME280;22383;51.114;13.666;2023-03-23T08:11:03;68660.16;;;13.31;100.00
36354;BME280;22383;51.114;13.666;2023-03-23T08:13:38;68655.22;;;13.29;100.00
36354;BME280;22383;51.114;13.666;2023-03-23T08:16:28;68648.41;;;13.22;100.00
36354;BME280;22383;51.114;13.666;2023-03-23T08:18:57;68645.22;;;13.15;100.00
36354;BME280;22383;51.114;13.666;2023-03-23T08:21:37;68637.03;;;13.12;100.00
36354;BME280;22383;51.114;13.666;2023-03-23T08:24:19;68632.50;;;13.08;100.00
36354;BME280;22383;51.114;13.666;2023-03-23T08:27:05;68634.41;;;13.05;100.00
36354;BME280;22383;51.114;13.666;2023-03-23T08:29:38;68637.22;;;13.08;100.00
36354;BME280;22383;51.114;13.666;2023-03-23T08:32:23;68633.63;;;13.09;100.00
36354;BME280;22383;51.114;13.666;2023-03-23T08:35:13;68629.66;;;13.05;100.00
36354;BME280;22383;51.114;13.666;2023-03-23T08:37:56;68630.78;;;13.07;100.00
36354;BME280;22383;51.114;13.666;2023-03-23T08:40:42;68633.84;;;13.04;100.00
36354;BME280;22383;51.114;13.666;2023-03-23T08:43:33;68617.16;;;12.94;100.00
36354;BME280;22383;51.114;13.666;2023-03-23T08:46:35;68613.38;;;12.86;100.00
36354;BME280;22383;51.114;13.666;2023-03-23T08:49:15;68593.50;;;12.68;100.00
36354;BME280;22383;51.114;13.666;2023-03-23T08:51:59;68571.34;;;12.48;100.00
36354;BME280;22383;51.114;13.666;2023-03-23T08:54:44;68560.75;;;12.41;100.00
36354;BME280;22383;51.114;13.666;2023-03-23T08:57:28;68564.00;;;12.41;100.00
36354;BME280;22383;51.114;13.666;2023-03-23T09:00:18;68561.91;;;12.42;100.00
36354;BME280;22383;51.114;13.666;2023-03-23T09:03:10;68572.50;;;12.49;100.00
36354;BME280;22383;51.114;13.666;2023-03-23T09:06:02;68571.56;;;12.51;100.00
36354;BME280;22383;51.114;13.666;2023-03-23T09:08:44;68570.03;;;12.52;100.00
36354;BME280;22383;51.114;13.666;2023-03-23T09:11:11;68564.53;;;12.49;100.00
36354;BME280;22383;51.114;13.666;2023-03-23T09:13:38;68559.63;;;12.40;100.00
36354;BME280;22383;51.114;13.666;2023-03-23T09:16:05;68554.50;;;12.35;100.00
36354;BME280;22383;51.114;13.666;2023-03-23T09:18:32;68550.75;;;12.34;100.00
36354;BME280;22383;51.114;13.666;2023-03-23T09:20:59;68560.97;;;12.36;100.00
36354;BME280;22383;51.114;13.666;2023-03-23T09:23:26;68547.13;;;12.28;100.00
36354;BME280;22383;51.114;13.666;2023-03-23T09:25:53;68543.16;;;12.25;100.00
36354;BME280;22383;51.114;13.666;2023-03-23T09:28:19;68541.06;;;12.18;100.00
36354;BME280;22383;51.114;13.666;2023-03-23T09:30:46;68529.72;;;12.15;100.00
36354;BME280;22383;51.114;13.666;2023-03-23T09:33:14;68533.13;;;12.18;100.00
36354;BME280;22383;51.114;13.666;2023-03-23T09:35:41;68544.47;;;12.28;100.00
36354;BME280;22383;51.114;13.666;2023-03-23T09:38:09;68537.88;;;12.18;100.00
36354;BME280;22383;51.114;13.666;2023-03-23T09:40:41;68538.63;;;12.21;100.00
36354;BME280;22383;51.114;13.666;2023-03-23T09:48:52;68564.56;;;12.42;100.00
36354;BME280;22383;51.114;13.666;2023-03-23T09:54:00;68594.84;;;12.72;100.00
36354;BME280;22383;51.114;13.666;2023-03-23T09:56:30;68616.59;;;12.94;100.00
36354;BME280;22383;51.114;13.666;2023-03-23T09:59:08;68646.31;;;13.16;100.00
36354;BME280;22383;51.114;13.666;2023-03-23T10:01:47;68652.38;;;13.26;100.00
36354;BME280;22383;51.114;13.666;2023-03-23T10:04:48;68658.44;;;13.29;100.00
36354;BME280;22383;51.114;13.666;2023-03-23T10:07:20;68670.19;;;13.45;100.00
36354;BME280;22383;51.114;13.666;2023-03-23T10:09:51;68680.44;;;13.54;100.00
36354;BME280;22383;51.114;13.666;2023-03-23T10:12:23;68701.09;;;13.68;100.00
36354;BME280;22383;51.114;13.666;2023-03-23T10:22:24;68711.31;;;13.77;100.00
36354;BME280;22383;51.114;13.666;2023-03-23T10:25:05;68727.41;;;13.94;100.00
36354;BME280;22383;51.114;13.666;2023-03-23T10:27:43;68725.91;;;13.88;100.00
36354;BME280;22383;51.114;13.666;2023-03-23T10:30:24;68707.69;;;13.78;100.00
36354;BME280;22383;51.114;13.666;2023-03-23T10:33:02;68729.69;;;13.96;100.00
36354;BME280;22383;51.114;13.666;2023-03-23T10:35:35;68722.28;;;13.89;100.00
36354;BME280;22383;51.114;13.666;2023-03-23T10:38:06;68712.63;;;13.80;100.00
36354;BME280;22383;51.114;13.666;2023-03-23T10:40:45;68714.91;;;13.83;100.00
36354;BME280;22383;51.114;13.666;2023-03-23T10:43:14;68727.78;;;13.92;100.00
36354;BME280;22383;51.114;13.666;2023-03-23T10:45:43;68708.09;;;13.76;100.00
36354;BME280;22383;51.114;13.666;2023-03-23T10:48:30;68713.94;;;13.84;100.00
36354;BME280;22383;51.114;13.666;2023-03-23T10:50:59;68708.66;;;13.77;100.00
36354;BME280;22383;51.114;13.666;2023-03-23T10:55:56;68742.97;;;14.03;100.00
36354;BME280;22383;51.114;13.666;2023-03-23T10:58:30;68733.09;;;13.99;100.00
36354;BME280;22383;51.114;13.666;2023-03-23T11:01:10;68742.19;;;14.07;100.00
36354;BME280;22383;51.114;13.666;2023-03-23T11:03:41;68736.88;;;14.00;100.00
36354;BME280;22383;51.114;13.666;2023-03-23T11:06:10;68740.31;;;14.03;100.00
36354;BME280;22383;51.114;13.666;2023-03-23T11:08:51;68740.88;;;14.04;100.00
36354;BME280;22383;51.114;13.666;2023-03-23T11:11:21;68733.28;;;13.94;100.00
36354;BME280;22383;51.114;13.666;2023-03-23T11:14:00;68728.53;;;13.95;100.00
36354;BME280;22383;51.114;13.666;2023-03-23T11:16:32;68724.56;;;13.91;100.00
36354;BME280;22383;51.114;13.666;2023-03-23T11:19:12;68731.75;;;13.95;100.00
36354;BME280;22383;51.114;13.666;2023-03-23T11:21:40;68727.22;;;13.91;100.00
36354;BME280;22383;51.114;13.666;2023-03-23T11:24:12;68742.19;;;14.07;100.00
36354;BME280;22383;51.114;13.666;2023-03-23T11:26:38;68745.78;;;14.06;100.00
36354;BME280;22383;51.114;13.666;2023-03-23T11:29:17;68714.16;;;13.79;100.00
36354;BME280;22383;51.114;13.666;2023-03-23T11:31:47;68702.78;;;13.69;100.00
36354;BME280;22383;51.114;13.666;2023-03-23T11:34:24;68727.78;;;13.92;100.00
36354;BME280;22383;51.114;13.666;2023-03-23T11:36:58;68712.06;;;13.80;100.00
36354;BME280;22383;51.114;13.666;2023-03-23T11:39:29;68704.69;;;13.73;100.00
36354;BME280;22383;51.114;13.666;2023-03-23T11:41:59;68705.44;;;13.69;100.00
36354;BME280;22383;51.114;13.666;2023-03-23T11:44:35;68669.44;;;13.41;100.00
36354;BME280;22383;51.114;13.666;2023-03-23T11:47:39;68646.53;;;13.18;100.00
36354;BME280;22383;51.114;13.666;2023-03-23T11:50:20;68641.56;;;13.16;100.00
36354;BME280;22383;51.114;13.666;2023-03-23T11:58:12;68627.22;;;13.01;100.00
36354;BME280;22383;51.114;13.666;2023-03-23T12:00:51;68633.81;;;13.12;100.00
36354;BME280;22383;51.114;13.666;2023-03-23T12:03:39;68640.66;;;13.11;100.00
36354;BME280;22383;51.114;13.666;2023-03-23T12:06:10;68638.75;;;13.14;100.00
36354;BME280;22383;51.114;13.666;2023-03-23T12:08:59;68641.38;;;13.21;100.00
36354;BME280;22383;51.114;13.666;2023-03-23T12:14:16;68645.38;;;13.17;100.00
36354;BME280;22383;51.114;13.666;2023-03-23T12:25:36;68670.00;;;13.42;100.00
36354;BME280;22383;51.114;13.666;2023-03-23T12:28:18;68684.44;;;13.50;100.00
36354;BME280;22383;51.114;13.666;2023-03-23T12:30:55;68684.59;;;13.53;100.00
36354;BME280;22383;51.114;13.666;2023-03-23T12:37:04;68706.94;;;13.75;100.00
36354;BME280;22383;51.114;13.666;2023-03-23T12:42:43;68710.00;;;13.73;100.00
36354;BME280;22383;51.114;13.666;2023-03-23T12:48:14;68739.75;;;14.03;100.00
36354;BME280;22383;51.114;13.666;2023-03-23T12:50:59;68742.97;;;14.03;100.00
36354;BME280;22383;51.114;13.666;2023-03-23T12:53:57;68735.94;;;14.02;100.00
36354;BME280;22383;51.114;13.666;2023-03-23T12:56:46;68742.59;;;13.98;100.00
36354;BME280;22383;51.114;13.666;2023-03-23T13:01:47;68739.53;;;14.00;100.00
36354;BME280;22383;51.114;13.666;2023-03-23T13:04:29;68750.53;;;14.12;100.00
36354;BME280;22383;51.114;13.666;2023-03-23T13:06:57;68749.56;;;14.14;100.00
36354;BME280;22383;51.114;13.666;2023-03-23T13:09:50;68726.66;;;13.91;100.00
36354;BME280;22383;51.114;13.666;2023-03-23T13:12:20;68749.56;;;14.14;100.00
36354;BME280;22383;51.114;13.666;2023-03-23T13:22:44;68785.78;;;14.44;100.00
36354;BME280;22383;51.114;13.666;2023-03-23T13:25:19;68775.53;;;14.35;100.00
36354;BME280;22383;51.114;13.666;2023-03-23T13:27:59;68785.41;;;14.46;100.00
36354;BME280;22383;51.114;13.666;2023-03-23T13:30:26;68799.06;;;14.59;100.00
36354;BME280;22383;51.114;13.666;2023-03-23T13:33:05;68825.78;;;14.83;100.00
36354;BME280;22383;51.114;13.666;2023-03-23T13:35:36;68835.84;;;14.89;100.00
36354;BME280;22383;51.114;13.666;2023-03-23T13:38:23;68814.22;;;14.70;100.00
36354;BME280;22383;51.114;13.666;2023-03-23T13:40:51;68807.41;;;14.64;100.00
36354;BME280;22383;51.114;13.666;2023-03-23T13:43:32;68829.03;;;14.83;100.00
36354;BME280;22383;51.114;13.666;2023-03-23T13:48:50;68807.59;;;14.66;100.00
36354;BME280;22383;51.114;13.666;2023-03-23T13:54:52;68812.72;;;14.71;100.00
36354;BME280;22383;51.114;13.666;2023-03-23T13:57:01;68850.81;;;15.05;100.00
36354;BME280;22383;51.114;13.666;2023-03-23T13:59:33;68891.78;;;15.42;100.00
36354;BME280;22383;51.114;13.666;2023-03-23T14:05:09;68910.19;;;15.54;100.00
36354;BME280;22383;51.114;13.666;2023-03-23T14:07:54;68908.28;;;15.57;100.00
36354;BME280;22383;51.114;13.666;2023-03-23T14:10:21;68910.00;;;15.59;100.00
36354;BME280;22383;51.114;13.666;2023-03-23T14:12:50;68925.38;;;15.73;100.00
36354;BME280;22383;51.114;13.666;2023-03-23T14:15:18;68974.16;;;16.14;100.00
36354;BME280;22383;51.114;13.666;2023-03-23T14:17:45;68966.94;;;16.10;100.00
36354;BME280;22383;51.114;13.666;2023-03-23T14:20:27;68924.22;;;15.72;100.00
36354;BME280;22383;51.114;13.666;2023-03-23T14:22:56;68931.06;;;15.78;100.00
36354;BME280;22383;51.114;13.666;2023-03-23T14:25:27;68938.47;;;15.84;100.00
36354;BME280;22383;51.114;13.666;2023-03-23T14:27:55;68934.13;;;15.76;100.00
36354;BME280;22383;51.114;13.666;2023-03-23T14:30:23;68954.97;;;15.99;100.00
36354;BME280;22383;51.114;13.666;2023-03-23T14:33:03;68939.03;;;15.85;100.00